Impacts METAR Board
IDs:

KPDX - Portland Intl Arpt, OR, US

Updated at: 1300 UTC 20 Oct 2021
Potential Impact None Slight Moderate High
Time 20/01Z 20/02Z 20/03Z 20/04Z 20/05Z 20/06Z 20/07Z 20/08Z 20/09Z 20/10Z 20/11Z 20/12Z 20/13Z
Temp57 56 54 54 53 54 56 55 54 55 53 54 56
Dewpt47 47 47 47 47 49 47 49 50 49 50 49 49
Altim29.66 29.65 29.63 29.62 29.61 29.62 29.66 29.67 29.64 29.63 29.65 29.69 29.73
VIS10 10 10 10 10 10 10 7 8 10 10 10 10
CIG260 190 190 190 160 110 100 65 70 80 70 70 65
CoverBKNOVCOVCBKNOVCOVCOVCOVCOVCOVCOVCOVCOVC
FltCatVFRVFRVFRVFRVFRVFRVFRVFRVFRVFRVFRVFRVFR
WX---------------RA-RA-----RA-RA
WDir3102902802702802802001101001000110170
WSpd5 3 4 3 4 6 9 6 5 5 0 3 9
WGst-- -- -- -- -- -- -- -- -- -- -- -- --
Raw hourly METARs
KPDX 200053Z 31005KT 10SM FEW190 SCT230 BKN260 14/08 A2966 RMK AO2 SLP045 CCSL W T01390083
KPDX 200153Z 29003KT 10SM BKN190 OVC210 13/08 A2965 RMK AO2 SLP039 T01330083
KPDX 200253Z 28004KT 10SM OVC190 12/08 A2963 RMK AO2 SLP034 T01220083 56018
KPDX 200353Z 27003KT 10SM SCT150 BKN190 12/08 A2962 RMK AO2 SLP029 T01220083
KPDX 200453Z 28004KT 10SM OVC160 12/08 A2961 RMK AO2 SLP025 T01170083
KPDX 200553Z 28006KT 10SM FEW080 BKN110 OVC120 12/09 A2962 RMK AO2 SLP031 T01220094 10156 20117 55004
KPDX 200653Z 20009KT 10SM BKN100 OVC120 13/08 A2966 RMK AO2 SLP042 T01330083
KPDX 200753Z 11006KT 7SM -RA OVC065 13/09 A2967 RMK AO2 RAB07 SLP047 P0003 T01280094 401610044
KPDX 200853Z 10005KT 8SM -RA OVC070 12/10 A2964 RMK AO2 SLP036 P0008 60011 T01220100 50006
KPDX 200953Z 10005KT 10SM OVC080 13/09 A2963 RMK AO2 RAE32 SLP030 P0002 T01280094
KPDX 201053Z 00000KT 10SM FEW010 OVC070 12/10 A2965 RMK AO2 RAB15E26 SLP038 P0000 T01170100
KPDX 201153Z 11003KT 10SM -RA OVC070 12/09 A2969 RMK AO2 RAB23 SLP053 P0000 60013 70013 T01220094 10133 20117 53017
KPDX 201253Z 17009KT 10SM -RA FEW048 BKN065 OVC085 13/09 A2973 RMK AO2 SLP066 P0001 T01330094



Page loaded:  13:06 UTC  |   06:06 AM Pacific  |   07:06 AM Mountain  |   08:06 AM Central  |   09:06 AM Eastern

 

ADVISORIES

FORECASTS

FORECASTS

OBSERVATIONS

USER TOOLS

ABOUT US